Weather at Vallon des Bergons

Public forecast

Using degrees Celsius for public forecast. Weather courtesy of forecast.io.

Closest aviation weather report (METAR) to Vallon des Bergons

Closest report is Tarbes-Lourdes-Pyrénées Airport, 12.1 nm (22.5 km) NE. Retrieved 2022/06/26 02:00 UTC (22 minutes ago):

LFBT 260200Z AUTO 29003KT 250V340 5000 BR BKN006/// OVC014/// //////CB 13/12 Q1015 TEMPO 2000 RA BKN003

Closest aviation forecast (TAF) to Vallon des Bergons

Closest forecast is Tarbes-Lourdes-Pyrénées Airport, 12.1 nm (22.5 km) NE. Retrieved 2022-06-26 00:21 UTC (2 hours ago):

TAF LFBT 252300Z 2600/2624 VRB03KT 9999 BKN017 TEMPO 2600/2610 2000 RA BKN007 FEW050CB PROB30 TEMPO 2600/2610 BKN003 BECMG 2607/2609 BKN005 TEMPO 2608/2612 02005KT BECMG 2612/2614 BKN012 PROB40 TEMPO 2616/2624 4000 -RA BKN008 BKN015TCU TEMPO 2618/2622 27005KT